sensor_id;sensor_type;location;lat;lon;timestamp;temperature;humidity
16955;DHT22;8594;52.052;8.354;2023-05-16T00:01:56;13.40;99.90
16955;DHT22;8594;52.052;8.354;2023-05-16T00:04:24;13.60;99.90
16955;DHT22;8594;52.052;8.354;2023-05-16T00:06:51;13.50;99.90
16955;DHT22;8594;52.052;8.354;2023-05-16T00:09:19;13.50;99.90
16955;DHT22;8594;52.052;8.354;2023-05-16T00:11:46;13.40;99.90
16955;DHT22;8594;52.052;8.354;2023-05-16T00:14:14;13.50;99.90
16955;DHT22;8594;52.052;8.354;2023-05-16T00:16:41;13.40;99.90
16955;DHT22;8594;52.052;8.354;2023-05-16T00:19:08;13.40;99.90
16955;DHT22;8594;52.052;8.354;2023-05-16T00:21:36;13.20;99.90
16955;DHT22;8594;52.052;8.354;2023-05-16T00:24:03;13.00;99.90
16955;DHT22;8594;52.052;8.354;2023-05-16T00:26:31;13.30;99.90
16955;DHT22;8594;52.052;8.354;2023-05-16T00:28:58;13.20;99.90
16955;DHT22;8594;52.052;8.354;2023-05-16T00:31:24;12.90;99.90
16955;DHT22;8594;52.052;8.354;2023-05-16T00:33:51;12.80;99.90
16955;DHT22;8594;52.052;8.354;2023-05-16T00:36:19;12.80;99.90
16955;DHT22;8594;52.052;8.354;2023-05-16T00:38:47;12.80;99.90
16955;DHT22;8594;52.052;8.354;2023-05-16T00:41:15;12.70;99.90
16955;DHT22;8594;52.052;8.354;2023-05-16T00:43:42;12.90;99.90
16955;DHT22;8594;52.052;8.354;2023-05-16T00:46:09;12.90;99.90
16955;DHT22;8594;52.052;8.354;2023-05-16T00:48:36;12.80;99.90
16955;DHT22;8594;52.052;8.354;2023-05-16T00:51:03;12.80;99.90
16955;DHT22;8594;52.052;8.354;2023-05-16T00:53:33;12.90;99.90
16955;DHT22;8594;52.052;8.354;2023-05-16T00:56:02;12.70;99.90
16955;DHT22;8594;52.052;8.354;2023-05-16T00:58:30;12.80;99.90
16955;DHT22;8594;52.052;8.354;2023-05-16T01:00:58;12.90;99.90
16955;DHT22;8594;52.052;8.354;2023-05-16T01:03:26;12.60;99.90
16955;DHT22;8594;52.052;8.354;2023-05-16T01:05:54;12.70;99.90
16955;DHT22;8594;52.052;8.354;2023-05-16T01:08:20;12.90;99.90
16955;DHT22;8594;52.052;8.354;2023-05-16T01:10:56;12.80;99.90
16955;DHT22;8594;52.052;8.354;2023-05-16T01:13:35;12.60;99.90
16955;DHT22;8594;52.052;8.354;2023-05-16T01:16:14;12.70;99.90
16955;DHT22;8594;52.052;8.354;2023-05-16T01:18:53;12.80;99.90
16955;DHT22;8594;52.052;8.354;2023-05-16T01:21:36;12.90;99.90
16955;DHT22;8594;52.052;8.354;2023-05-16T01:24:12;13.00;99.90
16955;DHT22;8594;52.052;8.354;2023-05-16T01:26:49;13.00;99.90
16955;DHT22;8594;52.052;8.354;2023-05-16T01:29:18;12.70;99.90
16955;DHT22;8594;52.052;8.354;2023-05-16T01:31:45;12.70;99.90
16955;DHT22;8594;52.052;8.354;2023-05-16T01:34:11;12.80;99.90
16955;DHT22;8594;52.052;8.354;2023-05-16T01:36:45;12.70;99.90
16955;DHT22;8594;52.052;8.354;2023-05-16T01:39:21;12.60;99.90
16955;DHT22;8594;52.052;8.354;2023-05-16T01:42:02;12.60;99.90
16955;DHT22;8594;52.052;8.354;2023-05-16T01:44:32;12.60;99.90
16955;DHT22;8594;52.052;8.354;2023-05-16T01:47:08;12.30;99.90
16955;DHT22;8594;52.052;8.354;2023-05-16T01:49:42;11.90;99.90
16955;DHT22;8594;52.052;8.354;2023-05-16T01:52:15;11.60;99.90
16955;DHT22;8594;52.052;8.354;2023-05-16T01:54:47;11.60;99.90
16955;DHT22;8594;52.052;8.354;2023-05-16T01:57:24;11.60;99.90
16955;DHT22;8594;52.052;8.354;2023-05-16T01:59:52;11.60;99.90
16955;DHT22;8594;52.052;8.354;2023-05-16T02:02:19;11.40;99.90
16955;DHT22;8594;52.052;8.354;2023-05-16T02:04:46;11.50;99.90
16955;DHT22;8594;52.052;8.354;2023-05-16T02:07:13;11.50;99.90
16955;DHT22;8594;52.052;8.354;2023-05-16T02:09:40;11.30;99.90
16955;DHT22;8594;52.052;8.354;2023-05-16T02:12:07;11.30;99.90
16955;DHT22;8594;52.052;8.354;2023-05-16T02:14:35;11.30;99.90
16955;DHT22;8594;52.052;8.354;2023-05-16T02:17:02;11.30;99.90
16955;DHT22;8594;52.052;8.354;2023-05-16T02:19:29;11.30;99.90
16955;DHT22;8594;52.052;8.354;2023-05-16T02:21:55;11.30;99.90
16955;DHT22;8594;52.052;8.354;2023-05-16T02:24:22;11.20;99.90
16955;DHT22;8594;52.052;8.354;2023-05-16T02:26:49;11.20;99.90
16955;DHT22;8594;52.052;8.354;2023-05-16T02:29:16;11.20;99.90
16955;DHT22;8594;52.052;8.354;2023-05-16T02:31:44;11.10;99.90
16955;DHT22;8594;52.052;8.354;2023-05-16T02:34:11;11.10;99.90
16955;DHT22;8594;52.052;8.354;2023-05-16T02:36:38;11.10;99.90
16955;DHT22;8594;52.052;8.354;2023-05-16T02:39:05;11.20;99.90
16955;DHT22;8594;52.052;8.354;2023-05-16T02:41:34;11.20;99.90
16955;DHT22;8594;52.052;8.354;2023-05-16T02:44:00;11.10;99.90
16955;DHT22;8594;52.052;8.354;2023-05-16T02:46:28;11.00;99.90
16955;DHT22;8594;52.052;8.354;2023-05-16T02:48:58;11.00;99.90
16955;DHT22;8594;52.052;8.354;2023-05-16T02:51:26;10.90;99.90
16955;DHT22;8594;52.052;8.354;2023-05-16T02:53:54;11.10;99.90
16955;DHT22;8594;52.052;8.354;2023-05-16T02:56:24;11.20;99.90
16955;DHT22;8594;52.052;8.354;2023-05-16T02:58:52;11.20;99.90
16955;DHT22;8594;52.052;8.354;2023-05-16T03:01:19;11.10;99.90
16955;DHT22;8594;52.052;8.354;2023-05-16T03:03:46;11.30;99.90
16955;DHT22;8594;52.052;8.354;2023-05-16T03:06:14;11.30;99.90
16955;DHT22;8594;52.052;8.354;2023-05-16T03:08:41;11.20;99.90
16955;DHT22;8594;52.052;8.354;2023-05-16T03:11:08;11.30;99.90
16955;DHT22;8594;52.052;8.354;2023-05-16T03:13:35;11.50;99.90
16955;DHT22;8594;52.052;8.354;2023-05-16T03:16:01;11.70;99.90
16955;DHT22;8594;52.052;8.354;2023-05-16T03:18:28;11.80;99.90
16955;DHT22;8594;52.052;8.354;2023-05-16T03:20:55;12.00;99.90
16955;DHT22;8594;52.052;8.354;2023-05-16T03:23:23;11.80;99.90
16955;DHT22;8594;52.052;8.354;2023-05-16T03:25:51;11.80;99.90
16955;DHT22;8594;52.052;8.354;2023-05-16T03:28:18;11.70;99.90
16955;DHT22;8594;52.052;8.354;2023-05-16T03:30:45;11.70;99.90
16955;DHT22;8594;52.052;8.354;2023-05-16T03:33:11;11.90;99.90
16955;DHT22;8594;52.052;8.354;2023-05-16T03:35:39;11.90;99.90
16955;DHT22;8594;52.052;8.354;2023-05-16T03:38:06;11.70;99.90
16955;DHT22;8594;52.052;8.354;2023-05-16T03:40:34;11.60;99.90
16955;DHT22;8594;52.052;8.354;2023-05-16T03:43:01;11.50;99.90
16955;DHT22;8594;52.052;8.354;2023-05-16T03:45:28;11.50;99.90
16955;DHT22;8594;52.052;8.354;2023-05-16T03:47:55;11.50;99.90
16955;DHT22;8594;52.052;8.354;2023-05-16T03:50:22;11.20;99.90
16955;DHT22;8594;52.052;8.354;2023-05-16T03:52:49;10.90;99.90
16955;DHT22;8594;52.052;8.354;2023-05-16T03:55:18;10.80;99.90
16955;DHT22;8594;52.052;8.354;2023-05-16T03:57:46;10.70;99.90
16955;DHT22;8594;52.052;8.354;2023-05-16T04:00:14;10.70;99.90
16955;DHT22;8594;52.052;8.354;2023-05-16T04:02:41;10.70;99.90
16955;DHT22;8594;52.052;8.354;2023-05-16T04:05:09;10.60;99.90
16955;DHT22;8594;52.052;8.354;2023-05-16T04:07:38;10.50;99.90
16955;DHT22;8594;52.052;8.354;2023-05-16T04:10:06;10.60;99.90
16955;DHT22;8594;52.052;8.354;2023-05-16T04:12:33;10.80;99.90
16955;DHT22;8594;52.052;8.354;2023-05-16T04:15:01;10.80;99.90
16955;DHT22;8594;52.052;8.354;2023-05-16T04:17:28;11.00;99.90
16955;DHT22;8594;52.052;8.354;2023-05-16T04:19:55;10.80;99.90
16955;DHT22;8594;52.052;8.354;2023-05-16T04:22:22;10.70;99.90
16955;DHT22;8594;52.052;8.354;2023-05-16T04:24:48;10.50;99.90
16955;DHT22;8594;52.052;8.354;2023-05-16T04:27:16;10.40;99.90
16955;DHT22;8594;52.052;8.354;2023-05-16T04:29:43;10.40;99.90
16955;DHT22;8594;52.052;8.354;2023-05-16T04:32:11;10.50;99.90
16955;DHT22;8594;52.052;8.354;2023-05-16T04:34:38;10.40;99.90
16955;DHT22;8594;52.052;8.354;2023-05-16T04:37:05;10.80;99.90
16955;DHT22;8594;52.052;8.354;2023-05-16T04:39:33;10.70;99.90
16955;DHT22;8594;52.052;8.354;2023-05-16T04:42:00;10.70;99.90
16955;DHT22;8594;52.052;8.354;2023-05-16T04:44:27;10.60;99.90
16955;DHT22;8594;52.052;8.354;2023-05-16T04:46:54;10.90;99.90
16955;DHT22;8594;52.052;8.354;2023-05-16T04:49:22;10.90;99.90
16955;DHT22;8594;52.052;8.354;2023-05-16T04:51:49;11.00;99.90
16955;DHT22;8594;52.052;8.354;2023-05-16T04:54:16;10.90;99.90
16955;DHT22;8594;52.052;8.354;2023-05-16T04:56:42;11.10;99.90
16955;DHT22;8594;52.052;8.354;2023-05-16T04:59:09;10.90;99.90
16955;DHT22;8594;52.052;8.354;2023-05-16T05:01:36;10.70;99.90
16955;DHT22;8594;52.052;8.354;2023-05-16T05:04:03;10.80;99.90
16955;DHT22;8594;52.052;8.354;2023-05-16T05:06:32;10.80;99.90
16955;DHT22;8594;52.052;8.354;2023-05-16T05:08:59;10.90;99.90
16955;DHT22;8594;52.052;8.354;2023-05-16T05:11:25;10.90;99.90
16955;DHT22;8594;52.052;8.354;2023-05-16T05:13:52;10.90;99.90
16955;DHT22;8594;52.052;8.354;2023-05-16T05:16:19;10.90;99.90
16955;DHT22;8594;52.052;8.354;2023-05-16T05:18:46;11.10;99.90
16955;DHT22;8594;52.052;8.354;2023-05-16T05:21:13;11.30;99.90
16955;DHT22;8594;52.052;8.354;2023-05-16T05:23:41;11.50;99.90
16955;DHT22;8594;52.052;8.354;2023-05-16T05:26:08;11.90;99.90
16955;DHT22;8594;52.052;8.354;2023-05-16T05:28:35;12.20;99.90
16955;DHT22;8594;52.052;8.354;2023-05-16T05:31:02;12.30;99.90
16955;DHT22;8594;52.052;8.354;2023-05-16T05:33:30;12.70;99.90
16955;DHT22;8594;52.052;8.354;2023-05-16T05:35:57;13.20;99.90
16955;DHT22;8594;52.052;8.354;2023-05-16T05:38:24;13.60;99.90
16955;DHT22;8594;52.052;8.354;2023-05-16T05:40:52;14.00;99.90
16955;DHT22;8594;52.052;8.354;2023-05-16T05:43:19;14.00;99.90
16955;DHT22;8594;52.052;8.354;2023-05-16T05:45:46;14.40;99.90
16955;DHT22;8594;52.052;8.354;2023-05-16T05:48:13;14.50;99.90
16955;DHT22;8594;52.052;8.354;2023-05-16T05:50:39;14.90;99.90
16955;DHT22;8594;52.052;8.354;2023-05-16T05:53:06;15.20;99.90
16955;DHT22;8594;52.052;8.354;2023-05-16T05:55:33;15.30;99.90
16955;DHT22;8594;52.052;8.354;2023-05-16T05:58:01;15.80;99.90
16955;DHT22;8594;52.052;8.354;2023-05-16T06:00:28;16.10;99.90
16955;DHT22;8594;52.052;8.354;2023-05-16T06:02:55;15.90;99.90
16955;DHT22;8594;52.052;8.354;2023-05-16T06:05:22;15.70;99.90
16955;DHT22;8594;52.052;8.354;2023-05-16T06:07:49;15.70;99.90
16955;DHT22;8594;52.052;8.354;2023-05-16T06:10:16;15.60;99.90
16955;DHT22;8594;52.052;8.354;2023-05-16T06:12:42;15.30;99.90
16955;DHT22;8594;52.052;8.354;2023-05-16T06:15:11;15.10;99.90
16955;DHT22;8594;52.052;8.354;2023-05-16T06:17:38;15.10;99.90
16955;DHT22;8594;52.052;8.354;2023-05-16T06:20:06;15.30;99.90
16955;DHT22;8594;52.052;8.354;2023-05-16T06:22:33;15.60;99.90
16955;DHT22;8594;52.052;8.354;2023-05-16T06:25:00;15.70;99.90
16955;DHT22;8594;52.052;8.354;2023-05-16T06:27:27;15.60;99.90
16955;DHT22;8594;52.052;8.354;2023-05-16T06:29:54;16.00;99.90
16955;DHT22;8594;52.052;8.354;2023-05-16T06:32:22;15.90;99.90
16955;DHT22;8594;52.052;8.354;2023-05-16T06:34:50;15.20;99.90
16955;DHT22;8594;52.052;8.354;2023-05-16T06:37:18;15.30;99.90
16955;DHT22;8594;52.052;8.354;2023-05-16T06:39:44;15.20;99.90
16955;DHT22;8594;52.052;8.354;2023-05-16T06:42:11;15.80;99.90
16955;DHT22;8594;52.052;8.354;2023-05-16T06:44:38;15.30;99.90
16955;DHT22;8594;52.052;8.354;2023-05-16T06:47:06;15.20;99.90
16955;DHT22;8594;52.052;8.354;2023-05-16T06:49:35;15.80;99.90
16955;DHT22;8594;52.052;8.354;2023-05-16T06:52:02;16.00;99.90
16955;DHT22;8594;52.052;8.354;2023-05-16T06:54:29;15.80;99.90
16955;DHT22;8594;52.052;8.354;2023-05-16T06:56:56;15.60;99.90
16955;DHT22;8594;52.052;8.354;2023-05-16T06:59:23;15.30;99.90
16955;DHT22;8594;52.052;8.354;2023-05-16T07:01:50;15.30;99.90
16955;DHT22;8594;52.052;8.354;2023-05-16T07:04:17;15.40;99.90
16955;DHT22;8594;52.052;8.354;2023-05-16T07:06:45;15.60;99.90
16955;DHT22;8594;52.052;8.354;2023-05-16T07:09:12;15.40;99.90
16955;DHT22;8594;52.052;8.354;2023-05-16T07:11:38;15.20;99.90
16955;DHT22;8594;52.052;8.354;2023-05-16T07:14:05;14.80;99.90
16955;DHT22;8594;52.052;8.354;2023-05-16T07:16:32;15.40;99.90
16955;DHT22;8594;52.052;8.354;2023-05-16T07:18:59;16.00;99.90
16955;DHT22;8594;52.052;8.354;2023-05-16T07:21:26;16.00;99.90
16955;DHT22;8594;52.052;8.354;2023-05-16T07:23:55;16.20;99.90
16955;DHT22;8594;52.052;8.354;2023-05-16T07:26:22;15.80;99.90
16955;DHT22;8594;52.052;8.354;2023-05-16T07:28:49;15.50;99.90
16955;DHT22;8594;52.052;8.354;2023-05-16T07:31:16;15.30;99.90
16955;DHT22;8594;52.052;8.354;2023-05-16T07:33:43;15.00;99.90
16955;DHT22;8594;52.052;8.354;2023-05-16T07:36:11;15.30;99.90
16955;DHT22;8594;52.052;8.354;2023-05-16T07:38:38;15.60;99.90
16955;DHT22;8594;52.052;8.354;2023-05-16T07:41:06;15.80;99.90
16955;DHT22;8594;52.052;8.354;2023-05-16T07:43:33;17.00;99.90
16955;DHT22;8594;52.052;8.354;2023-05-16T07:46:00;17.90;99.90
16955;DHT22;8594;52.052;8.354;2023-05-16T07:48:26;17.90;99.90
16955;DHT22;8594;52.052;8.354;2023-05-16T07:50:53;18.50;99.90
16955;DHT22;8594;52.052;8.354;2023-05-16T07:53:21;18.80;99.90
16955;DHT22;8594;52.052;8.354;2023-05-16T07:55:47;18.40;99.90
16955;DHT22;8594;52.052;8.354;2023-05-16T07:58:16;17.60;99.90
16955;DHT22;8594;52.052;8.354;2023-05-16T08:00:43;17.30;99.90
16955;DHT22;8594;52.052;8.354;2023-05-16T08:03:10;16.60;99.90
16955;DHT22;8594;52.052;8.354;2023-05-16T08:05:37;16.20;99.90
16955;DHT22;8594;52.052;8.354;2023-05-16T08:08:04;15.20;99.90
16955;DHT22;8594;52.052;8.354;2023-05-16T08:10:31;15.30;99.90
16955;DHT22;8594;52.052;8.354;2023-05-16T08:12:58;15.30;99.90
16955;DHT22;8594;52.052;8.354;2023-05-16T08:15:27;15.50;99.90
16955;DHT22;8594;52.052;8.354;2023-05-16T08:17:55;16.00;99.90
16955;DHT22;8594;52.052;8.354;2023-05-16T08:20:23;16.30;99.90
16955;DHT22;8594;52.052;8.354;2023-05-16T08:22:49;16.20;99.90
16955;DHT22;8594;52.052;8.354;2023-05-16T08:25:17;16.10;99.90
16955;DHT22;8594;52.052;8.354;2023-05-16T08:27:44;16.00;99.90
16955;DHT22;8594;52.052;8.354;2023-05-16T08:30:12;16.20;99.90
16955;DHT22;8594;52.052;8.354;2023-05-16T08:32:40;16.20;99.90
16955;DHT22;8594;52.052;8.354;2023-05-16T08:35:08;16.30;99.90
16955;DHT22;8594;52.052;8.354;2023-05-16T08:37:35;15.60;99.90
16955;DHT22;8594;52.052;8.354;2023-05-16T08:40:04;15.00;99.90
16955;DHT22;8594;52.052;8.354;2023-05-16T08:42:33;15.40;99.90
16955;DHT22;8594;52.052;8.354;2023-05-16T08:45:00;15.50;99.90
16955;DHT22;8594;52.052;8.354;2023-05-16T08:47:30;16.00;99.90
16955;DHT22;8594;52.052;8.354;2023-05-16T08:50:01;15.80;99.90
16955;DHT22;8594;52.052;8.354;2023-05-16T08:52:30;15.60;99.90
16955;DHT22;8594;52.052;8.354;2023-05-16T08:55:01;15.80;99.90
16955;DHT22;8594;52.052;8.354;2023-05-16T08:57:30;15.80;99.90
16955;DHT22;8594;52.052;8.354;2023-05-16T08:59:59;16.40;99.90
16955;DHT22;8594;52.052;8.354;2023-05-16T09:02:26;16.90;99.90
16955;DHT22;8594;52.052;8.354;2023-05-16T09:04:53;16.50;99.90
16955;DHT22;8594;52.052;8.354;2023-05-16T09:07:24;16.10;99.90
16955;DHT22;8594;52.052;8.354;2023-05-16T09:09:51;15.80;99.90
16955;DHT22;8594;52.052;8.354;2023-05-16T09:12:19;15.70;99.90
16955;DHT22;8594;52.052;8.354;2023-05-16T09:14:46;15.60;99.90
16955;DHT22;8594;52.052;8.354;2023-05-16T09:17:13;16.00;99.90
16955;DHT22;8594;52.052;8.354;2023-05-16T09:19:41;16.60;99.90
16955;DHT22;8594;52.052;8.354;2023-05-16T09:22:11;16.80;99.90
16955;DHT22;8594;52.052;8.354;2023-05-16T09:24:41;17.00;99.90
16955;DHT22;8594;52.052;8.354;2023-05-16T09:27:09;16.70;99.90
16955;DHT22;8594;52.052;8.354;2023-05-16T09:29:39;16.40;99.90
16955;DHT22;8594;52.052;8.354;2023-05-16T09:32:11;16.40;99.90
16955;DHT22;8594;52.052;8.354;2023-05-16T09:34:42;16.00;99.90
16955;DHT22;8594;52.052;8.354;2023-05-16T09:37:10;15.90;99.90
16955;DHT22;8594;52.052;8.354;2023-05-16T09:39:40;16.40;99.90
16955;DHT22;8594;52.052;8.354;2023-05-16T09:42:12;16.70;99.90
16955;DHT22;8594;52.052;8.354;2023-05-16T09:44:40;16.90;99.90
16955;DHT22;8594;52.052;8.354;2023-05-16T09:47:07;17.20;99.90
16955;DHT22;8594;52.052;8.354;2023-05-16T09:49:36;17.60;99.90
16955;DHT22;8594;52.052;8.354;2023-05-16T09:52:04;17.40;99.90
16955;DHT22;8594;52.052;8.354;2023-05-16T09:54:31;16.80;99.90
16955;DHT22;8594;52.052;8.354;2023-05-16T09:57:00;16.60;99.90
16955;DHT22;8594;52.052;8.354;2023-05-16T09:59:29;16.70;99.90
16955;DHT22;8594;52.052;8.354;2023-05-16T10:01:57;16.90;99.90
16955;DHT22;8594;52.052;8.354;2023-05-16T10:04:24;16.80;99.90
16955;DHT22;8594;52.052;8.354;2023-05-16T10:06:54;16.80;99.90
16955;DHT22;8594;52.052;8.354;2023-05-16T10:09:22;16.70;99.90
16955;DHT22;8594;52.052;8.354;2023-05-16T10:11:51;17.20;99.90
16955;DHT22;8594;52.052;8.354;2023-05-16T10:14:20;17.20;99.90
16955;DHT22;8594;52.052;8.354;2023-05-16T10:16:48;17.40;99.90
16955;DHT22;8594;52.052;8.354;2023-05-16T10:19:19;17.20;99.90
16955;DHT22;8594;52.052;8.354;2023-05-16T10:21:52;17.70;99.90
16955;DHT22;8594;52.052;8.354;2023-05-16T10:24:28;18.20;99.90
16955;DHT22;8594;52.052;8.354;2023-05-16T10:26:59;18.50;99.90
16955;DHT22;8594;52.052;8.354;2023-05-16T10:29:29;18.30;99.90
16955;DHT22;8594;52.052;8.354;2023-05-16T10:31:58;18.20;99.70
16955;DHT22;8594;52.052;8.354;2023-05-16T10:34:25;18.80;99.90
16955;DHT22;8594;52.052;8.354;2023-05-16T10:36:53;18.80;99.30
16955;DHT22;8594;52.052;8.354;2023-05-16T10:39:20;18.30;97.80
16955;DHT22;8594;52.052;8.354;2023-05-16T10:41:47;17.80;98.60
16955;DHT22;8594;52.052;8.354;2023-05-16T10:44:16;16.60;99.90
16955;DHT22;8594;52.052;8.354;2023-05-16T10:46:46;16.50;99.90
16955;DHT22;8594;52.052;8.354;2023-05-16T10:49:19;16.50;99.90
16955;DHT22;8594;52.052;8.354;2023-05-16T10:52:01;16.50;99.90
16955;DHT22;8594;52.052;8.354;2023-05-16T10:54:37;16.20;99.90
16955;DHT22;8594;52.052;8.354;2023-05-16T10:57:08;16.90;99.90
16955;DHT22;8594;52.052;8.354;2023-05-16T10:59:41;17.40;99.90
16955;DHT22;8594;52.052;8.354;2023-05-16T11:02:25;17.50;99.90
16955;DHT22;8594;52.052;8.354;2023-05-16T11:04:55;17.30;99.90
16955;DHT22;8594;52.052;8.354;2023-05-16T11:07:25;16.90;99.90
16955;DHT22;8594;52.052;8.354;2023-05-16T11:10:04;17.30;99.90
16955;DHT22;8594;52.052;8.354;2023-05-16T11:12:37;17.70;99.90
16955;DHT22;8594;52.052;8.354;2023-05-16T11:15:20;17.30;99.90
16955;DHT22;8594;52.052;8.354;2023-05-16T11:17:50;17.20;99.90
16955;DHT22;8594;52.052;8.354;2023-05-16T11:20:31;16.80;99.90
16955;DHT22;8594;52.052;8.354;2023-05-16T11:23:19;17.30;99.90
16955;DHT22;8594;52.052;8.354;2023-05-16T11:25:48;17.90;99.90
16955;DHT22;8594;52.052;8.354;2023-05-16T11:28:19;18.20;99.90
16955;DHT22;8594;52.052;8.354;2023-05-16T11:30:48;18.30;99.10
16955;DHT22;8594;52.052;8.354;2023-05-16T11:33:18;18.70;99.90
16955;DHT22;8594;52.052;8.354;2023-05-16T11:35:59;18.70;98.90
16955;DHT22;8594;52.052;8.354;2023-05-16T11:38:29;18.00;98.40
16955;DHT22;8594;52.052;8.354;2023-05-16T11:41:04;17.40;99.40
16955;DHT22;8594;52.052;8.354;2023-05-16T11:43:39;16.60;99.50
16955;DHT22;8594;52.052;8.354;2023-05-16T11:46:10;17.10;99.90
16955;DHT22;8594;52.052;8.354;2023-05-16T11:48:39;17.30;99.90
16955;DHT22;8594;52.052;8.354;2023-05-16T11:51:07;17.30;99.90
16955;DHT22;8594;52.052;8.354;2023-05-16T11:53:35;17.30;99.30
16955;DHT22;8594;52.052;8.354;2023-05-16T11:56:02;17.10;97.40
16955;DHT22;8594;52.052;8.354;2023-05-16T11:58:30;17.00;99.70
16955;DHT22;8594;52.052;8.354;2023-05-16T12:00:57;17.20;99.90
16955;DHT22;8594;52.052;8.354;2023-05-16T12:03:24;17.10;99.90
16955;DHT22;8594;52.052;8.354;2023-05-16T12:05:53;16.90;99.90
16955;DHT22;8594;52.052;8.354;2023-05-16T12:08:22;17.00;99.90
16955;DHT22;8594;52.052;8.354;2023-05-16T12:10:50;17.60;99.90
16955;DHT22;8594;52.052;8.354;2023-05-16T12:13:19;17.80;99.60
16955;DHT22;8594;52.052;8.354;2023-05-16T12:15:48;17.90;98.30
16955;DHT22;8594;52.052;8.354;2023-05-16T12:18:17;17.60;98.00
16955;DHT22;8594;52.052;8.354;2023-05-16T12:20:45;17.60;97.40
16955;DHT22;8594;52.052;8.354;2023-05-16T12:23:13;17.20;97.00
16955;DHT22;8594;52.052;8.354;2023-05-16T12:25:44;17.20;96.50
16955;DHT22;8594;52.052;8.354;2023-05-16T12:28:14;17.20;97.10
16955;DHT22;8594;52.052;8.354;2023-05-16T12:30:42;17.60;97.70
16955;DHT22;8594;52.052;8.354;2023-05-16T12:33:14;17.80;97.20
16955;DHT22;8594;52.052;8.354;2023-05-16T12:35:43;18.20;97.90
16955;DHT22;8594;52.052;8.354;2023-05-16T12:38:14;18.60;97.50
16955;DHT22;8594;52.052;8.354;2023-05-16T12:40:42;18.40;97.30
16955;DHT22;8594;52.052;8.354;2023-05-16T12:43:13;18.10;95.70
16955;DHT22;8594;52.052;8.354;2023-05-16T12:45:40;17.50;96.70
16955;DHT22;8594;52.052;8.354;2023-05-16T12:48:12;18.00;96.60
16955;DHT22;8594;52.052;8.354;2023-05-16T12:50:39;18.30;97.60
16955;DHT22;8594;52.052;8.354;2023-05-16T12:53:10;18.10;96.00
16955;DHT22;8594;52.052;8.354;2023-05-16T12:55:55;18.30;96.40
16955;DHT22;8594;52.052;8.354;2023-05-16T12:58:38;18.70;96.30
16955;DHT22;8594;52.052;8.354;2023-05-16T13:01:21;19.20;95.50
16955;DHT22;8594;52.052;8.354;2023-05-16T13:04:11;19.00;95.80
16955;DHT22;8594;52.052;8.354;2023-05-16T13:06:58;19.10;96.30
16955;DHT22;8594;52.052;8.354;2023-05-16T13:09:30;19.00;94.70
16955;DHT22;8594;52.052;8.354;2023-05-16T13:12:06;18.90;94.30
16955;DHT22;8594;52.052;8.354;2023-05-16T13:14:48;18.60;94.30
16955;DHT22;8594;52.052;8.354;2023-05-16T13:17:30;18.80;94.40
16955;DHT22;8594;52.052;8.354;2023-05-16T13:20:11;19.40;96.10
16955;DHT22;8594;52.052;8.354;2023-05-16T13:22:43;19.50;95.30
16955;DHT22;8594;52.052;8.354;2023-05-16T13:25:22;18.90;92.30
16955;DHT22;8594;52.052;8.354;2023-05-16T13:28:08;18.60;92.30
16955;DHT22;8594;52.052;8.354;2023-05-16T13:30:42;18.10;94.10
16955;DHT22;8594;52.052;8.354;2023-05-16T13:33:25;18.00;93.80
16955;DHT22;8594;52.052;8.354;2023-05-16T13:35:54;17.60;93.90
16955;DHT22;8594;52.052;8.354;2023-05-16T13:38:22;17.40;94.20
16955;DHT22;8594;52.052;8.354;2023-05-16T13:40:51;17.40;94.50
16955;DHT22;8594;52.052;8.354;2023-05-16T13:43:25;17.40;94.10
16955;DHT22;8594;52.052;8.354;2023-05-16T13:45:53;17.00;95.10
16955;DHT22;8594;52.052;8.354;2023-05-16T13:48:23;17.10;95.50
16955;DHT22;8594;52.052;8.354;2023-05-16T13:50:58;17.40;95.60
16955;DHT22;8594;52.052;8.354;2023-05-16T13:53:42;17.20;97.30
16955;DHT22;8594;52.052;8.354;2023-05-16T13:56:11;17.40;98.40
16955;DHT22;8594;52.052;8.354;2023-05-16T13:58:39;18.00;98.20
16955;DHT22;8594;52.052;8.354;2023-05-16T14:01:06;18.20;97.10
16955;DHT22;8594;52.052;8.354;2023-05-16T14:03:33;17.90;97.70
16955;DHT22;8594;52.052;8.354;2023-05-16T14:06:01;17.80;98.40
16955;DHT22;8594;52.052;8.354;2023-05-16T14:08:29;17.80;97.90
16955;DHT22;8594;52.052;8.354;2023-05-16T14:10:55;18.00;97.10
16955;DHT22;8594;52.052;8.354;2023-05-16T14:13:22;18.10;96.20
16955;DHT22;8594;52.052;8.354;2023-05-16T14:15:50;18.50;97.30
16955;DHT22;8594;52.052;8.354;2023-05-16T14:18:17;18.60;96.50
16955;DHT22;8594;52.052;8.354;2023-05-16T14:20:44;18.70;96.20
16955;DHT22;8594;52.052;8.354;2023-05-16T14:23:11;18.30;97.20
16955;DHT22;8594;52.052;8.354;2023-05-16T14:25:37;18.40;97.30
16955;DHT22;8594;52.052;8.354;2023-05-16T14:28:04;18.40;96.90
16955;DHT22;8594;52.052;8.354;2023-05-16T14:30:31;18.40;96.40
16955;DHT22;8594;52.052;8.354;2023-05-16T14:32:59;18.10;97.30
16955;DHT22;8594;52.052;8.354;2023-05-16T14:35:27;18.20;97.00
16955;DHT22;8594;52.052;8.354;2023-05-16T14:37:55;17.30;97.80
16955;DHT22;8594;52.052;8.354;2023-05-16T14:40:22;16.80;98.50
16955;DHT22;8594;52.052;8.354;2023-05-16T14:42:49;16.20;99.40
16955;DHT22;8594;52.052;8.354;2023-05-16T14:45:16;16.50;99.40
16955;DHT22;8594;52.052;8.354;2023-05-16T14:47:43;16.80;99.30
16955;DHT22;8594;52.052;8.354;2023-05-16T14:50:12;16.80;99.70
16955;DHT22;8594;52.052;8.354;2023-05-16T14:52:39;17.00;99.50
16955;DHT22;8594;52.052;8.354;2023-05-16T14:55:06;17.20;99.40
16955;DHT22;8594;52.052;8.354;2023-05-16T14:57:33;17.30;98.70
16955;DHT22;8594;52.052;8.354;2023-05-16T15:00:00;17.60;97.80
16955;DHT22;8594;52.052;8.354;2023-05-16T15:02:27;17.70;98.10
16955;DHT22;8594;52.052;8.354;2023-05-16T15:04:54;17.60;97.10
16955;DHT22;8594;52.052;8.354;2023-05-16T15:07:23;17.20;98.40
16955;DHT22;8594;52.052;8.354;2023-05-16T15:09:50;17.20;96.90
16955;DHT22;8594;52.052;8.354;2023-05-16T15:12:17;16.90;98.00
16955;DHT22;8594;52.052;8.354;2023-05-16T15:14:44;16.70;98.00
16955;DHT22;8594;52.052;8.354;2023-05-16T15:17:11;16.60;98.20
16955;DHT22;8594;52.052;8.354;2023-05-16T15:19:38;16.90;98.50
16955;DHT22;8594;52.052;8.354;2023-05-16T15:22:04;16.80;98.80
16955;DHT22;8594;52.052;8.354;2023-05-16T15:24:33;16.50;99.10
16955;DHT22;8594;52.052;8.354;2023-05-16T15:27:00;16.20;99.00
16955;DHT22;8594;52.052;8.354;2023-05-16T15:29:29;16.20;99.60
16955;DHT22;8594;52.052;8.354;2023-05-16T15:31:56;16.30;99.70
16955;DHT22;8594;52.052;8.354;2023-05-16T15:34:22;16.50;99.50
16955;DHT22;8594;52.052;8.354;2023-05-16T15:36:51;16.50;99.60
16955;DHT22;8594;52.052;8.354;2023-05-16T15:39:18;16.80;99.40
16955;DHT22;8594;52.052;8.354;2023-05-16T15:41:46;17.00;99.40
16955;DHT22;8594;52.052;8.354;2023-05-16T15:44:13;17.10;99.10
16955;DHT22;8594;52.052;8.354;2023-05-16T15:46:40;16.80;99.50
16955;DHT22;8594;52.052;8.354;2023-05-16T15:49:06;16.90;99.00
16955;DHT22;8594;52.052;8.354;2023-05-16T15:51:33;17.40;99.10
16955;DHT22;8594;52.052;8.354;2023-05-16T15:54:01;17.40;97.90
16955;DHT22;8594;52.052;8.354;2023-05-16T15:56:28;17.40;97.90